Time;durP1;ratioP1;P1;durP2;ratioP2;P2;SDS_P1;SDS_P2;PMS_P1;PMS_P2;Temp;Humidity;BMP_temperature;BMP_pressure;BME280_temperature;BME280_humidity;BME280_pressure;Samples;Min_cycle;Max_cycle;Signal;HPM_P1;HPM_P2
2023/03/03 00:01:49;;;;;;;;;;;;;;;;;;5112683;28;1590;-46
2023/03/03 00:04:17;;;;;;;;;;;;;;;;;;5112888;28;1973;-42
2023/03/03 00:06:45;;;;;;;;;;;;;;;;;;5091868;28;2204;-47
2023/03/03 00:09:12;;;;;;;;;;;;;;;;;;5091987;28;2110;-47
2023/03/03 00:11:39;;;;;;;;;;;;;;;;;;5091994;28;2013;-41
2023/03/03 00:14:17;;;;;;;;;;;;;;;;;;5092042;28;1787;-41
2023/03/03 00:16:48;;;;;;;;;;;;;;;;;;5092093;28;2052;-41
2023/03/03 00:19:19;;;;;;;;;;;;;;;;;;5091946;28;1663;-42
2023/03/03 00:21:48;;;;;;;;;;;;;;;;;;5091865;28;1962;-41
2023/03/03 00:24:30;;;;;;;;;;;;;;;;;;5091818;28;1845;-42
2023/03/03 00:27:00;;;;;;;;;;;;;;;;;;5091801;28;1972;-41
2023/03/03 00:29:27;;;;;;;;;;;;;;;;;;5091703;28;1772;-43
2023/03/03 00:31:58;;;;;;;;;;;;;;;;;;5100126;28;2011;-44
2023/03/03 00:34:27;;;;;;;;;;;;;;;;;;5111983;28;1962;-42
2023/03/03 00:36:55;;;;;;;;;;;;;;;;;;5112078;28;1818;-43
2023/03/03 00:39:30;;;;;;;;;;;;;;;;;;5094022;28;2158;-44
2023/03/03 00:41:59;;;;;;;;;;;;;;;;;;5093527;28;1733;-48
2023/03/03 00:44:31;;;;;;;;;;;;;;;;;;5093575;28;1832;-43
2023/03/03 00:47:01;;;;;;;;;;;;;;;;;;5093787;28;1535;-42
2023/03/03 00:49:29;;;;;;;;;;;;;;;;;;5111630;28;1747;-42
2023/03/03 00:51:56;;;;;;;;;;;;;;;;;;5111717;28;2149;-40
2023/03/03 00:54:23;;;;;;;;;;;;;;;;;;5111847;28;1730;-40
2023/03/03 00:56:51;;;;;;;;;;;;;;;;;;5093483;28;2445;-42
2023/03/03 00:59:19;;;;;;;;;;;;;;;;;;5111659;28;1699;-41
2023/03/03 01:01:46;;;;;;;;;;;;;;;;;;5111747;28;1829;-42
2023/03/03 01:04:13;;;;;;;;;;;;;;;;;;5093309;28;2170;-45
2023/03/03 01:06:40;;;;;;;;;;;;;;;;;;5091862;28;1853;-43
2023/03/03 01:09:07;;;;;;;;;;;;;;;;;;5091000;28;1829;-42
2023/03/03 01:11:35;;;;;;;;;;;;;;;;;;5072884;28;1906;-44
2023/03/03 01:14:02;;;;;;;;;;;;;;;;;;5091310;28;1745;-44
2023/03/03 01:16:29;;;;;;;;;;;;;;;;;;5091166;28;1684;-41
2023/03/03 01:18:56;;;;;;;;;;;;;;;;;;5091291;28;1857;-43
2023/03/03 01:21:26;;;;;;;;;;;;;;;;;;5091263;28;1757;-42
2023/03/03 01:23:53;;;;;;;;;;;;;;;;;;5091293;28;1903;-40
2023/03/03 01:26:20;;;;;;;;;;;;;;;;;;5091197;28;1836;-42
2023/03/03 01:28:47;;;;;;;;;;;;;;;;;;5091017;28;2429;-45
2023/03/03 01:31:16;;;;;;;;;;;;;;;;;;5094233;28;1978;-43
2023/03/03 01:33:43;;;;;;;;;;;;;;;;;;5097252;28;1719;-42
2023/03/03 01:36:10;;;;;;;;;;;;;;;;;;5114788;28;2103;-44
2023/03/03 01:38:37;;;;;;;;;;;;;;;;;;5115755;28;2083;-42
2023/03/03 01:41:05;;;;;;;;;;;;;;;;;;5115265;28;2094;-42
2023/03/03 01:43:32;;;;;;;;;;;;;;;;;;5115505;28;2067;-41
2023/03/03 01:46:00;;;;;;;;;;;;;;;;;;5097186;28;2098;-41
2023/03/03 01:48:41;;;;;;;;;;;;;;;;;;5115296;28;1719;-41
2023/03/03 01:51:14;;;;;;;;;;;;;;;;;;5115328;28;2081;-41
2023/03/03 01:53:43;;;;;;;;;;;;;;;;;;5115024;28;1988;-42
2023/03/03 01:56:10;;;;;;;;;;;;;;;;;;5115328;28;2098;-41
2023/03/03 01:58:43;;;;;;;;;;;;;;;;;;5096515;28;1624;-42
2023/03/03 02:01:13;;;;;;;;;;;;;;;;;;5114866;28;2072;-44
2023/03/03 02:03:41;;;;;;;;;;;;;;;;;;5114739;28;2015;-42
2023/03/03 02:06:12;;;;;;;;;;;;;;;;;;5081334;28;1772;-42
2023/03/03 02:08:53;;;;;;;;;;;;;;;;;;5094499;28;2289;-46
2023/03/03 02:11:21;;;;;;;;;;;;;;;;;;5094538;28;1993;-41
2023/03/03 02:13:48;;;;;;;;;;;;;;;;;;5094297;28;1886;-45
2023/03/03 02:16:16;;;;;;;;;;;;;;;;;;5076150;28;2147;-42
2023/03/03 02:18:43;;;;;;;;;;;;;;;;;;5094438;28;2228;-41
2023/03/03 02:21:18;;;;;;;;;;;;;;;;;;5094181;28;1704;-43
2023/03/03 02:23:51;;;;;;;;;;;;;;;;;;5094219;28;2081;-43
2023/03/03 02:26:21;;;;;;;;;;;;;;;;;;5075493;28;2135;-42
2023/03/03 02:28:54;;;;;;;;;;;;;;;;;;5075708;28;1830;-42
2023/03/03 02:31:23;;;;;;;;;;;;;;;;;;5097743;28;2156;-42
2023/03/03 02:33:50;;;;;;;;;;;;;;;;;;5114332;28;1852;-41
2023/03/03 02:36:22;;;;;;;;;;;;;;;;;;5113872;28;1945;-41
2023/03/03 02:39:01;;;;;;;;;;;;;;;;;;5104096;28;1978;-42
2023/03/03 02:41:47;;;;;;;;;;;;;;;;;;5093830;28;1850;-41
2023/03/03 02:44:22;;;;;;;;;;;;;;;;;;5075592;28;1829;-43
2023/03/03 02:46:51;;;;;;;;;;;;;;;;;;5084207;28;1837;-42
2023/03/03 02:49:22;;;;;;;;;;;;;;;;;;5075218;28;2203;-42
2023/03/03 02:51:50;;;;;;;;;;;;;;;;;;5093649;28;1926;-41
2023/03/03 02:54:18;;;;;;;;;;;;;;;;;;5075391;28;2022;-45
2023/03/03 02:56:45;;;;;;;;;;;;;;;;;;5093623;28;2011;-42
2023/03/03 02:59:13;;;;;;;;;;;;;;;;;;5093324;28;1790;-42
2023/03/03 03:01:45;;;;;;;;;;;;;;;;;;5074991;28;1864;-44
2023/03/03 03:04:20;;;;;;;;;;;;;;;;;;5093318;28;2149;-41
2023/03/03 03:06:49;;;;;;;;;;;;;;;;;;5093122;28;1429;-43
2023/03/03 03:09:17;;;;;;;;;;;;;;;;;;5075370;28;1989;-41
2023/03/03 03:11:47;;;;;;;;;;;;;;;;;;5092142;28;2113;-43
2023/03/03 03:14:17;;;;;;;;;;;;;;;;;;5075250;28;1558;-44
2023/03/03 03:16:44;;;;;;;;;;;;;;;;;;5075202;28;1880;-44
2023/03/03 03:19:12;;;;;;;;;;;;;;;;;;5093351;28;2202;-41
2023/03/03 03:21:40;;;;;;;;;;;;;;;;;;5074927;28;2356;-39
2023/03/03 03:24:09;;;;;;;;;;;;;;;;;;5074818;28;1524;-44
2023/03/03 03:26:40;;;;;;;;;;;;;;;;;;5092136;28;2279;-41
2023/03/03 03:29:09;;;;;;;;;;;;;;;;;;5074548;28;1808;-41
2023/03/03 03:31:36;;;;;;;;;;;;;;;;;;5074499;28;1912;-43
2023/03/03 03:34:03;;;;;;;;;;;;;;;;;;5074801;28;1633;-42
2023/03/03 03:36:30;;;;;;;;;;;;;;;;;;5111719;28;2120;-47
2023/03/03 03:39:01;;;;;;;;;;;;;;;;;;5112791;28;1577;-42
2023/03/03 03:41:29;;;;;;;;;;;;;;;;;;5104091;28;1908;-43
2023/03/03 03:43:56;;;;;;;;;;;;;;;;;;5074507;28;1904;-42
2023/03/03 03:46:24;;;;;;;;;;;;;;;;;;5074359;28;1716;-43
2023/03/03 03:48:51;;;;;;;;;;;;;;;;;;5074131;28;2075;-44
2023/03/03 03:51:20;;;;;;;;;;;;;;;;;;5092417;28;1907;-46
2023/03/03 03:53:47;;;;;;;;;;;;;;;;;;5073981;28;1714;-41
2023/03/03 03:56:14;;;;;;;;;;;;;;;;;;5090315;28;1917;-40
2023/03/03 03:58:44;;;;;;;;;;;;;;;;;;5083991;28;1973;-41
2023/03/03 04:01:13;;;;;;;;;;;;;;;;;;5073895;28;2246;-41
2023/03/03 04:03:45;;;;;;;;;;;;;;;;;;5073979;28;1978;-42
2023/03/03 04:06:16;;;;;;;;;;;;;;;;;;5086297;28;2379;-45
2023/03/03 04:08:44;;;;;;;;;;;;;;;;;;5073878;28;1515;-42
2023/03/03 04:11:11;;;;;;;;;;;;;;;;;;5073833;28;1996;-42
2023/03/03 04:13:38;;;;;;;;;;;;;;;;;;5092086;28;2186;-45
2023/03/03 04:16:07;;;;;;;;;;;;;;;;;;5073684;28;1423;-41
2023/03/03 04:18:35;;;;;;;;;;;;;;;;;;5074067;28;2010;-40
2023/03/03 04:21:03;;;;;;;;;;;;;;;;;;5092086;28;1591;-42
2023/03/03 04:23:32;;;;;;;;;;;;;;;;;;5091665;28;2010;-44
2023/03/03 04:26:00;;;;;;;;;;;;;;;;;;5080552;28;2060;-41
2023/03/03 04:28:28;;;;;;;;;;;;;;;;;;5093742;28;2253;-41
2023/03/03 04:30:55;;;;;;;;;;;;;;;;;;5093528;28;2086;-41
2023/03/03 04:33:24;;;;;;;;;;;;;;;;;;5073361;28;2181;-42
2023/03/03 04:35:51;;;;;;;;;;;;;;;;;;5091771;28;1929;-44
2023/03/03 04:38:18;;;;;;;;;;;;;;;;;;5091781;28;2246;-40
2023/03/03 04:40:46;;;;;;;;;;;;;;;;;;5073070;28;2274;-41
2023/03/03 04:43:15;;;;;;;;;;;;;;;;;;5073458;28;1945;-40
2023/03/03 04:45:42;;;;;;;;;;;;;;;;;;5073123;28;1946;-41
2023/03/03 04:48:09;;;;;;;;;;;;;;;;;;5073240;28;2082;-40
2023/03/03 04:50:36;;;;;;;;;;;;;;;;;;5073197;28;2016;-40
2023/03/03 04:53:04;;;;;;;;;;;;;;;;;;5091337;28;1980;-40
2023/03/03 04:55:32;;;;;;;;;;;;;;;;;;5091540;28;1934;-41
2023/03/03 04:57:59;;;;;;;;;;;;;;;;;;5091155;28;2136;-42
2023/03/03 05:00:26;;;;;;;;;;;;;;;;;;5090975;28;1929;-42
2023/03/03 05:02:54;;;;;;;;;;;;;;;;;;5072960;28;1789;-41
2023/03/03 05:05:22;;;;;;;;;;;;;;;;;;5075682;28;1869;-42
2023/03/03 05:07:49;;;;;;;;;;;;;;;;;;5090318;28;1664;-40
2023/03/03 05:10:16;;;;;;;;;;;;;;;;;;5091098;28;1828;-41
2023/03/03 05:12:43;;;;;;;;;;;;;;;;;;5091286;28;1906;-40
2023/03/03 05:15:11;;;;;;;;;;;;;;;;;;5090951;28;2009;-40
2023/03/03 05:17:38;;;;;;;;;;;;;;;;;;5090778;28;1990;-40
2023/03/03 05:20:07;;;;;;;;;;;;;;;;;;5091195;28;1725;-40
2023/03/03 05:22:34;;;;;;;;;;;;;;;;;;5090986;28;2014;-43
2023/03/03 05:25:01;;;;;;;;;;;;;;;;;;5091024;28;2196;-40
2023/03/03 05:27:28;;;;;;;;;;;;;;;;;;5090776;28;1786;-39
2023/03/03 05:29:55;;;;;;;;;;;;;;;;;;5091163;28;2303;-42
2023/03/03 05:32:22;;;;;;;;;;;;;;;;;;5103406;28;1984;-40
2023/03/03 05:34:51;;;;;;;;;;;;;;;;;;5111355;28;2091;-40
2023/03/03 05:37:19;;;;;;;;;;;;;;;;;;5111350;28;1972;-41
2023/03/03 05:39:46;;;;;;;;;;;;;;;;;;5111382;28;2240;-44
2023/03/03 05:42:14;;;;;;;;;;;;;;;;;;5111218;28;1745;-41
2023/03/03 05:44:41;;;;;;;;;;;;;;;;;;5111495;28;1992;-41
2023/03/03 05:47:08;;;;;;;;;;;;;;;;;;5093262;28;2127;-40
2023/03/03 05:49:35;;;;;;;;;;;;;;;;;;5097846;28;10311;-42
2023/03/03 05:52:03;;;;;;;;;;;;;;;;;;5070931;28;1915;-41
2023/03/03 05:54:30;;;;;;;;;;;;;;;;;;5070412;28;1697;-39
2023/03/03 05:56:57;;;;;;;;;;;;;;;;;;5052825;28;1848;-41
2023/03/03 05:59:24;;;;;;;;;;;;;;;;;;5070569;28;2146;-44
2023/03/03 06:01:51;;;;;;;;;;;;;;;;;;5070456;28;2258;-41
2023/03/03 06:04:19;;;;;;;;;;;;;;;;;;5070210;28;2256;-41
2023/03/03 06:06:46;;;;;;;;;;;;;;;;;;5070450;28;1877;-40
2023/03/03 06:09:13;;;;;;;;;;;;;;;;;;5088442;28;2074;-42
2023/03/03 06:11:40;;;;;;;;;;;;;;;;;;5090843;28;1664;-41
2023/03/03 06:14:07;;;;;;;;;;;;;;;;;;5090532;28;1906;-40
2023/03/03 06:16:34;;;;;;;;;;;;;;;;;;5090511;28;2047;-40
2023/03/03 06:19:01;;;;;;;;;;;;;;;;;;5093054;28;1940;-41
2023/03/03 06:21:29;;;;;;;;;;;;;;;;;;5094385;28;1871;-41
2023/03/03 06:23:56;;;;;;;;;;;;;;;;;;5093957;28;1943;-39
2023/03/03 06:26:23;;;;;;;;;;;;;;;;;;5094422;28;2050;-40
2023/03/03 06:28:52;;;;;;;;;;;;;;;;;;5093888;28;1823;-45
2023/03/03 06:31:20;;;;;;;;;;;;;;;;;;5090512;28;2173;-41
2023/03/03 06:33:47;;;;;;;;;;;;;;;;;;5073832;28;2190;-40
2023/03/03 06:36:14;;;;;;;;;;;;;;;;;;5073680;28;1999;-41
2023/03/03 06:38:41;;;;;;;;;;;;;;;;;;5073679;28;1374;-39
2023/03/03 06:41:08;;;;;;;;;;;;;;;;;;5072402;28;2034;-41
2023/03/03 06:43:36;;;;;;;;;;;;;;;;;;5073122;28;1875;-40
2023/03/03 06:46:05;;;;;;;;;;;;;;;;;;5055727;28;1752;-41
2023/03/03 06:48:32;;;;;;;;;;;;;;;;;;5073531;28;1846;-39
2023/03/03 06:51:01;;;;;;;;;;;;;;;;;;5073027;28;1862;-40
2023/03/03 06:53:31;;;;;;;;;;;;;;;;;;5073349;28;2353;-38
2023/03/03 06:56:00;;;;;;;;;;;;;;;;;;5073453;28;1742;-40
2023/03/03 06:58:28;;;;;;;;;;;;;;;;;;5073270;28;1907;-40
2023/03/03 07:00:57;;;;;;;;;;;;;;;;;;5073198;28;2155;-41
2023/03/03 07:03:27;;;;;;;;;;;;;;;;;;5072580;28;2064;-40
2023/03/03 07:05:54;;;;;;;;;;;;;;;;;;5086522;28;2268;-41
2023/03/03 07:08:22;;;;;;;;;;;;;;;;;;5093366;28;2020;-40
2023/03/03 07:10:50;;;;;;;;;;;;;;;;;;5093351;28;1387;-40
2023/03/03 07:13:17;;;;;;;;;;;;;;;;;;5093476;28;2017;-41
2023/03/03 07:15:45;;;;;;;;;;;;;;;;;;5092897;28;1833;-47
2023/03/03 07:18:31;;;;;;;;;;;;;;;;;;5093439;28;2013;-40
2023/03/03 07:20:58;;;;;;;;;;;;;;;;;;5093347;28;1996;-41
2023/03/03 07:23:28;;;;;;;;;;;;;;;;;;5093113;28;2144;-41
2023/03/03 07:25:55;;;;;;;;;;;;;;;;;;5093256;28;1717;-50
2023/03/03 07:28:23;;;;;;;;;;;;;;;;;;5092499;28;1784;-44
2023/03/03 07:30:51;;;;;;;;;;;;;;;;;;5092385;28;1884;-41
2023/03/03 07:33:26;;;;;;;;;;;;;;;;;;5072853;28;1994;-41
2023/03/03 07:35:54;;;;;;;;;;;;;;;;;;5072442;28;1776;-42
2023/03/03 07:38:22;;;;;;;;;;;;;;;;;;5072261;28;1766;-41
2023/03/03 07:40:51;;;;;;;;;;;;;;;;;;5072540;28;2309;-41
2023/03/03 07:43:35;;;;;;;;;;;;;;;;;;5072868;28;1835;-40
2023/03/03 07:46:23;;;;;;;;;;;;;;;;;;5054414;28;2022;-41
2023/03/03 07:48:51;;;;;;;;;;;;;;;;;;5068252;28;2165;-42
2023/03/03 07:51:21;;;;;;;;;;;;;;;;;;5072492;28;2101;-45
2023/03/03 07:53:48;;;;;;;;;;;;;;;;;;5072504;28;1978;-41
2023/03/03 07:56:29;;;;;;;;;;;;;;;;;;5072387;28;1754;-41
2023/03/03 07:58:57;;;;;;;;;;;;;;;;;;5072158;28;1972;-52
2023/03/03 08:01:43;;;;;;;;;;;;;;;;;;5071961;28;2278;-51
2023/03/03 08:04:29;;;;;;;;;;;;;;;;;;5072188;28;1304;-43
2023/03/03 08:06:57;;;;;;;;;;;;;;;;;;5072406;28;1751;-42
2023/03/03 08:09:26;;;;;;;;;;;;;;;;;;5071869;28;1899;-42
2023/03/03 08:11:55;;;;;;;;;;;;;;;;;;5072036;28;1812;-41
2023/03/03 08:14:30;;;;;;;;;;;;;;;;;;5071819;28;2043;-52
2023/03/03 08:16:57;;;;;;;;;;;;;;;;;;5071824;28;1753;-42
2023/03/03 08:19:28;;;;;;;;;;;;;;;;;;5071771;28;2138;-41
2023/03/03 08:21:59;;;;;;;;;;;;;;;;;;5071836;28;1574;-41
2023/03/03 08:24:26;;;;;;;;;;;;;;;;;;5071610;28;1797;-42
2023/03/03 08:26:53;;;;;;;;;;;;;;;;;;5071650;28;1891;-42
2023/03/03 08:29:21;;;;;;;;;;;;;;;;;;5072200;28;2227;-42
2023/03/03 08:31:48;;;;;;;;;;;;;;;;;;5079381;28;1762;-41
2023/03/03 08:34:15;;;;;;;;;;;;;;;;;;5091786;28;2125;-42
2023/03/03 08:36:42;;;;;;;;;;;;;;;;;;5091906;28;1678;-42
2023/03/03 08:39:09;;;;;;;;;;;;;;;;;;5085312;28;1658;-41
2023/03/03 08:41:37;;;;;;;;;;;;;;;;;;5071282;28;1766;-42
2023/03/03 08:44:05;;;;;;;;;;;;;;;;;;5071530;28;1795;-46
2023/03/03 08:46:32;;;;;;;;;;;;;;;;;;5071352;28;1524;-43
2023/03/03 08:48:59;;;;;;;;;;;;;;;;;;5071293;28;1594;-45
2023/03/03 08:51:27;;;;;;;;;;;;;;;;;;5071523;28;2294;-43
2023/03/03 08:53:54;;;;;;;;;;;;;;;;;;5071222;28;1916;-42
2023/03/03 08:56:21;;;;;;;;;;;;;;;;;;5071520;28;2152;-47
2023/03/03 08:58:52;;;;;;;;;;;;;;;;;;5069769;28;2206;-47
2023/03/03 09:01:28;;;;;;;;;;;;;;;;;;5071367;28;1860;-45
2023/03/03 09:03:55;;;;;;;;;;;;;;;;;;5071005;28;2162;-43
2023/03/03 09:06:23;;;;;;;;;;;;;;;;;;5071012;28;1706;-48
2023/03/03 09:08:50;;;;;;;;;;;;;;;;;;5071605;28;1761;-45
2023/03/03 09:11:22;;;;;;;;;;;;;;;;;;5071344;28;1765;-46
2023/03/03 09:13:52;;;;;;;;;;;;;;;;;;5070990;28;1907;-48
2023/03/03 09:16:21;;;;;;;;;;;;;;;;;;5070835;28;1815;-45
2023/03/03 09:18:48;;;;;;;;;;;;;;;;;;5070899;28;2421;-44
2023/03/03 09:21:16;;;;;;;;;;;;;;;;;;5071053;28;2147;-49
2023/03/03 09:23:48;;;;;;;;;;;;;;;;;;5071321;28;1971;-46
2023/03/03 09:26:25;;;;;;;;;;;;;;;;;;5064194;28;1833;-47
2023/03/03 09:28:58;;;;;;;;;;;;;;;;;;5070754;28;2055;-46
2023/03/03 09:31:37;;;;;;;;;;;;;;;;;;5052979;28;2115;-43
2023/03/03 09:34:21;;;;;;;;;;;;;;;;;;5070966;28;1930;-44
2023/03/03 09:36:48;;;;;;;;;;;;;;;;;;5088298;28;1770;-43
2023/03/03 09:39:20;;;;;;;;;;;;;;;;;;5090914;28;1894;-48
2023/03/03 09:41:47;;;;;;;;;;;;;;;;;;5090586;28;2107;-48
2023/03/03 09:44:26;;;;;;;;;;;;;;;;;;5090785;28;2169;-43
2023/03/03 09:47:16;;;;;;;;;;;;;;;;;;5091230;28;2046;-44
2023/03/03 09:49:56;;;;;;;;;;;;;;;;;;5087918;28;2191;-45
2023/03/03 09:52:25;;;;;;;;;;;;;;;;;;5091172;28;2281;-45
2023/03/03 09:55:11;;;;;;;;;;;;;;;;;;5095019;28;2171;-47
2023/03/03 09:57:44;;;;;;;;;;;;;;;;;;5094993;28;1569;-45
2023/03/03 10:00:18;;;;;;;;;;;;;;;;;;5094727;28;2242;-43
2023/03/03 10:02:53;;;;;;;;;;;;;;;;;;5094646;28;1796;-46
2023/03/03 10:05:43;;;;;;;;;;;;;;;;;;5085820;28;1923;-46
2023/03/03 10:08:23;;;;;;;;;;;;;;;;;;5073181;28;1809;-46
2023/03/03 10:11:09;;;;;;;;;;;;;;;;;;5073214;28;2154;-45
2023/03/03 10:13:50;;;;;;;;;;;;;;;;;;5074169;28;2187;-42
2023/03/03 10:16:27;;;;;;;;;;;;;;;;;;5074448;28;2206;-45
2023/03/03 10:18:57;;;;;;;;;;;;;;;;;;5074226;28;1594;-47
2023/03/03 10:21:27;;;;;;;;;;;;;;;;;;5074140;28;2051;-45
2023/03/03 10:24:21;;;;;;;;;;;;;;;;;;5074356;28;1672;-45
2023/03/03 10:27:07;;;;;;;;;;;;;;;;;;5072184;28;1804;-45
2023/03/03 10:29:44;;;;;;;;;;;;;;;;;;5073704;28;1849;-45
2023/03/03 10:32:28;;;;;;;;;;;;;;;;;;5073772;28;1728;-46
2023/03/03 10:35:01;;;;;;;;;;;;;;;;;;5073868;28;2203;-48
2023/03/03 10:37:31;;;;;;;;;;;;;;;;;;5073893;28;1585;-41
2023/03/03 10:40:01;;;;;;;;;;;;;;;;;;5055711;28;2118;-41
2023/03/03 10:42:31;;;;;;;;;;;;;;;;;;5074060;28;1999;-44
2023/03/03 10:45:04;;;;;;;;;;;;;;;;;;5073597;28;2078;-41
2023/03/03 10:47:53;;;;;;;;;;;;;;;;;;5073668;28;1508;-44
2023/03/03 10:50:25;;;;;;;;;;;;;;;;;;5073326;28;1919;-41
2023/03/03 10:52:55;;;;;;;;;;;;;;;;;;5073481;28;1504;-42
2023/03/03 10:55:33;;;;;;;;;;;;;;;;;;5073362;28;2200;-45
2023/03/03 10:58:11;;;;;;;;;;;;;;;;;;5073414;28;1508;-44
2023/03/03 11:00:56;;;;;;;;;;;;;;;;;;5073495;28;1965;-45
2023/03/03 11:03:40;;;;;;;;;;;;;;;;;;5073267;28;2306;-43
2023/03/03 11:06:12;;;;;;;;;;;;;;;;;;5087051;28;1477;-44
2023/03/03 11:08:48;;;;;;;;;;;;;;;;;;5093212;28;1946;-43
2023/03/03 11:11:29;;;;;;;;;;;;;;;;;;5093057;28;1864;-44
2023/03/03 11:14:15;;;;;;;;;;;;;;;;;;5093059;28;1967;-45
2023/03/03 11:16:48;;;;;;;;;;;;;;;;;;5093013;28;2029;-44
2023/03/03 11:19:45;;;;;;;;;;;;;;;;;;5093056;28;2022;-43
2023/03/03 11:22:24;;;;;;;;;;;;;;;;;;5080223;28;1536;-44
2023/03/03 11:25:04;;;;;;;;;;;;;;;;;;5093007;28;2136;-43
2023/03/03 11:27:55;;;;;;;;;;;;;;;;;;5089911;28;1976;-42
2023/03/03 11:30:25;;;;;;;;;;;;;;;;;;5067461;28;1911;-44
2023/03/03 11:33:14;;;;;;;;;;;;;;;;;;5088894;28;2056;-41
2023/03/03 11:35:54;;;;;;;;;;;;;;;;;;5092756;28;2011;-42
2023/03/03 11:38:24;;;;;;;;;;;;;;;;;;5092613;28;1974;-41
2023/03/03 11:40:56;;;;;;;;;;;;;;;;;;5093024;28;1952;-43
2023/03/03 11:43:42;;;;;;;;;;;;;;;;;;5092699;28;2051;-41
2023/03/03 11:46:14;;;;;;;;;;;;;;;;;;5092780;28;1572;-45
2023/03/03 11:48:45;;;;;;;;;;;;;;;;;;5092195;28;2000;-43
2023/03/03 11:51:14;;;;;;;;;;;;;;;;;;5092796;28;1994;-40
2023/03/03 11:53:41;;;;;;;;;;;;;;;;;;5092440;28;1973;-41
2023/03/03 11:56:17;;;;;;;;;;;;;;;;;;5092475;28;1459;-40
2023/03/03 11:58:47;;;;;;;;;;;;;;;;;;5092348;28;2062;-43
2023/03/03 12:01:32;;;;;;;;;;;;;;;;;;5092496;28;2099;-41
2023/03/03 12:04:19;;;;;;;;;;;;;;;;;;5092354;28;2323;-41
2023/03/03 12:07:01;;;;;;;;;;;;;;;;;;5071804;28;2001;-41
2023/03/03 12:10:00;;;;;;;;;;;;;;;;;;5071915;28;1756;-42
2023/03/03 12:12:33;;;;;;;;;;;;;;;;;;5071936;28;2126;-45
2023/03/03 12:15:16;;;;;;;;;;;;;;;;;;5071647;28;1976;-39
2023/03/03 12:17:43;;;;;;;;;;;;;;;;;;5071775;28;2035;-42
2023/03/03 12:20:25;;;;;;;;;;;;;;;;;;5071747;28;1887;-41
2023/03/03 12:22:58;;;;;;;;;;;;;;;;;;5071765;28;1943;-43
2023/03/03 12:25:33;;;;;;;;;;;;;;;;;;5089661;28;1809;-41
2023/03/03 12:28:06;;;;;;;;;;;;;;;;;;5073753;28;1833;-42
2023/03/03 12:30:48;;;;;;;;;;;;;;;;;;5092333;28;2075;-40
2023/03/03 12:33:33;;;;;;;;;;;;;;;;;;5072051;28;1680;-41
2023/03/03 12:36:05;;;;;;;;;;;;;;;;;;5071254;28;1782;-42
2023/03/03 12:38:42;;;;;;;;;;;;;;;;;;5072116;28;2023;-41
2023/03/03 12:41:32;;;;;;;;;;;;;;;;;;5071740;28;1938;-41
2023/03/03 12:43:59;;;;;;;;;;;;;;;;;;5071356;28;1993;-41
2023/03/03 12:46:38;;;;;;;;;;;;;;;;;;5071334;28;1561;-41
2023/03/03 12:49:05;;;;;;;;;;;;;;;;;;5053506;28;2072;-41
2023/03/03 12:51:38;;;;;;;;;;;;;;;;;;5071460;28;1967;-41
2023/03/03 12:54:28;;;;;;;;;;;;;;;;;;5071656;28;2018;-41
2023/03/03 12:57:20;;;;;;;;;;;;;;;;;;5071118;28;2006;-40
2023/03/03 12:59:50;;;;;;;;;;;;;;;;;;5070960;28;2232;-41
2023/03/03 13:02:36;;;;;;;;;;;;;;;;;;5071012;28;1680;-39
2023/03/03 13:05:16;;;;;;;;;;;;;;;;;;5071182;28;2105;-40
2023/03/03 13:07:56;;;;;;;;;;;;;;;;;;5071385;28;2156;-42
2023/03/03 13:10:33;;;;;;;;;;;;;;;;;;5071026;28;1688;-41
2023/03/03 13:13:09;;;;;;;;;;;;;;;;;;5071237;28;2055;-45
2023/03/03 13:15:56;;;;;;;;;;;;;;;;;;5071125;28;1912;-41
2023/03/03 13:18:47;;;;;;;;;;;;;;;;;;5064102;28;1851;-42
2023/03/03 13:21:20;;;;;;;;;;;;;;;;;;5070898;28;1623;-41
2023/03/03 13:23:58;;;;;;;;;;;;;;;;;;5071287;28;2191;-42
2023/03/03 13:26:45;;;;;;;;;;;;;;;;;;5070755;28;2330;-41
2023/03/03 13:29:38;;;;;;;;;;;;;;;;;;5042721;28;1487;-44
2023/03/03 13:32:13;;;;;;;;;;;;;;;;;;5082569;28;1700;-45
2023/03/03 13:34:40;;;;;;;;;;;;;;;;;;5095337;28;1947;-42
2023/03/03 13:37:10;;;;;;;;;;;;;;;;;;5095112;28;1856;-44
2023/03/03 13:39:41;;;;;;;;;;;;;;;;;;5083405;28;1985;-46
2023/03/03 13:42:21;;;;;;;;;;;;;;;;;;5075085;28;1840;-39
2023/03/03 13:44:50;;;;;;;;;;;;;;;;;;5074814;28;1938;-46
2023/03/03 13:47:38;;;;;;;;;;;;;;;;;;5073630;28;1766;-42
2023/03/03 13:50:18;;;;;;;;;;;;;;;;;;5074516;28;1829;-43
2023/03/03 13:53:00;;;;;;;;;;;;;;;;;;5074684;28;2269;-44
2023/03/03 13:55:33;;;;;;;;;;;;;;;;;;5074337;28;2074;-40
2023/03/03 13:58:11;;;;;;;;;;;;;;;;;;5074388;28;1819;-41
2023/03/03 14:00:53;;;;;;;;;;;;;;;;;;5074250;28;1370;-45
2023/03/03 14:03:26;;;;;;;;;;;;;;;;;;5074226;28;1916;-44
2023/03/03 14:06:01;;;;;;;;;;;;;;;;;;5087181;28;1974;-41
2023/03/03 14:08:31;;;;;;;;;;;;;;;;;;5094372;28;1979;-41
2023/03/03 14:11:01;;;;;;;;;;;;;;;;;;5094544;28;2144;-44
2023/03/03 14:13:31;;;;;;;;;;;;;;;;;;5094475;28;1827;-42
2023/03/03 14:15:58;;;;;;;;;;;;;;;;;;5093975;28;2288;-43
2023/03/03 14:18:33;;;;;;;;;;;;;;;;;;5073884;28;2464;-43
2023/03/03 14:21:08;;;;;;;;;;;;;;;;;;5073885;28;1608;-44
2023/03/03 14:23:38;;;;;;;;;;;;;;;;;;5074090;28;1862;-41
2023/03/03 14:26:10;;;;;;;;;;;;;;;;;;5073707;28;1652;-43
2023/03/03 14:28:42;;;;;;;;;;;;;;;;;;5073818;28;1706;-44
2023/03/03 14:31:24;;;;;;;;;;;;;;;;;;5076396;28;1433;-42
2023/03/03 14:34:00;;;;;;;;;;;;;;;;;;5094009;28;1911;-42
2023/03/03 14:36:30;;;;;;;;;;;;;;;;;;5093698;28;1971;-45
2023/03/03 14:38:57;;;;;;;;;;;;;;;;;;5093440;28;1846;-42
2023/03/03 14:41:35;;;;;;;;;;;;;;;;;;5094007;28;1680;-45
2023/03/03 14:44:21;;;;;;;;;;;;;;;;;;5071445;28;1818;-45
2023/03/03 14:47:11;;;;;;;;;;;;;;;;;;5073555;28;2176;-40
2023/03/03 14:49:39;;;;;;;;;;;;;;;;;;5073438;28;1970;-40
2023/03/03 14:52:15;;;;;;;;;;;;;;;;;;5073353;28;1610;-40
2023/03/03 14:54:45;;;;;;;;;;;;;;;;;;5073625;28;1899;-40
2023/03/03 14:57:14;;;;;;;;;;;;;;;;;;5055579;28;2458;-40
2023/03/03 15:00:05;;;;;;;;;;;;;;;;;;5073676;28;1597;-40
2023/03/03 15:02:37;;;;;;;;;;;;;;;;;;5067133;28;1858;-39
2023/03/03 15:05:12;;;;;;;;;;;;;;;;;;5073291;28;1449;-41
2023/03/03 15:07:39;;;;;;;;;;;;;;;;;;5073322;28;1842;-40
2023/03/03 15:10:08;;;;;;;;;;;;;;;;;;5073193;28;2154;-41
2023/03/03 15:12:36;;;;;;;;;;;;;;;;;;5076564;28;2132;-39
2023/03/03 15:15:04;;;;;;;;;;;;;;;;;;5093082;28;1907;-43
2023/03/03 15:17:34;;;;;;;;;;;;;;;;;;5093085;28;1879;-41
2023/03/03 15:20:22;;;;;;;;;;;;;;;;;;5093390;28;1972;-41
2023/03/03 15:22:52;;;;;;;;;;;;;;;;;;5092788;28;1955;-42
2023/03/03 15:25:25;;;;;;;;;;;;;;;;;;5092979;28;1957;-41
2023/03/03 15:28:08;;;;;;;;;;;;;;;;;;5093001;28;1826;-41
2023/03/03 15:30:49;;;;;;;;;;;;;;;;;;5092987;28;1909;-41
2023/03/03 15:33:23;;;;;;;;;;;;;;;;;;5073019;28;2042;-40
2023/03/03 15:35:53;;;;;;;;;;;;;;;;;;5072512;28;1996;-41
2023/03/03 15:38:26;;;;;;;;;;;;;;;;;;5072581;28;1830;-44
2023/03/03 15:41:07;;;;;;;;;;;;;;;;;;5072860;28;1923;-41
2023/03/03 15:43:34;;;;;;;;;;;;;;;;;;5072624;28;1743;-41
2023/03/03 15:46:04;;;;;;;;;;;;;;;;;;5072270;28;1813;-41
2023/03/03 15:48:51;;;;;;;;;;;;;;;;;;5072255;28;2127;-44
2023/03/03 15:51:36;;;;;;;;;;;;;;;;;;5071056;28;1433;-45
2023/03/03 15:54:18;;;;;;;;;;;;;;;;;;5072152;28;1958;-41
2023/03/03 15:56:56;;;;;;;;;;;;;;;;;;5072200;28;1910;-40
2023/03/03 15:59:27;;;;;;;;;;;;;;;;;;5072195;28;1817;-41
2023/03/03 16:02:13;;;;;;;;;;;;;;;;;;5072208;28;2103;-41
2023/03/03 16:04:46;;;;;;;;;;;;;;;;;;5074697;28;2268;-39
2023/03/03 16:07:32;;;;;;;;;;;;;;;;;;5091998;28;2087;-41
2023/03/03 16:10:03;;;;;;;;;;;;;;;;;;5078556;28;1880;-42
2023/03/03 16:12:50;;;;;;;;;;;;;;;;;;5071866;28;1797;-42
2023/03/03 16:15:36;;;;;;;;;;;;;;;;;;5072055;28;1914;-42
2023/03/03 16:18:21;;;;;;;;;;;;;;;;;;5071816;28;2091;-41
2023/03/03 16:20:48;;;;;;;;;;;;;;;;;;5071894;28;1556;-43
2023/03/03 16:23:20;;;;;;;;;;;;;;;;;;5071479;28;2126;-46
2023/03/03 16:26:01;;;;;;;;;;;;;;;;;;5079737;28;1745;-43
2023/03/03 16:28:46;;;;;;;;;;;;;;;;;;5091860;28;1798;-46
2023/03/03 16:31:14;;;;;;;;;;;;;;;;;;5089010;28;2317;-41
2023/03/03 16:33:42;;;;;;;;;;;;;;;;;;5071505;28;1884;-40
2023/03/03 16:36:13;;;;;;;;;;;;;;;;;;5071400;28;1911;-41
2023/03/03 16:38:44;;;;;;;;;;;;;;;;;;5071217;28;2026;-41
2023/03/03 16:41:13;;;;;;;;;;;;;;;;;;5071647;28;2127;-42
2023/03/03 16:43:40;;;;;;;;;;;;;;;;;;5070978;28;2138;-43
2023/03/03 16:46:26;;;;;;;;;;;;;;;;;;5071203;28;1924;-41
2023/03/03 16:48:53;;;;;;;;;;;;;;;;;;5071277;28;1993;-41
2023/03/03 16:51:23;;;;;;;;;;;;;;;;;;5071432;28;1992;-41
2023/03/03 16:53:59;;;;;;;;;;;;;;;;;;5071435;28;2115;-42
2023/03/03 16:56:46;;;;;;;;;;;;;;;;;;5071185;28;1910;-41
2023/03/03 16:59:27;;;;;;;;;;;;;;;;;;5070656;28;1985;-42
2023/03/03 17:02:07;;;;;;;;;;;;;;;;;;5071257;28;1647;-41
2023/03/03 17:04:57;;;;;;;;;;;;;;;;;;5071037;28;1992;-43
2023/03/03 17:07:28;;;;;;;;;;;;;;;;;;5070963;28;2109;-42
2023/03/03 17:09:58;;;;;;;;;;;;;;;;;;5085541;28;2003;-41
2023/03/03 17:12:44;;;;;;;;;;;;;;;;;;5090924;28;1884;-41
2023/03/03 17:15:23;;;;;;;;;;;;;;;;;;5090614;28;1973;-41
2023/03/03 17:18:02;;;;;;;;;;;;;;;;;;5091499;28;1964;-42
2023/03/03 17:20:45;;;;;;;;;;;;;;;;;;5070960;28;1906;-41
2023/03/03 17:23:24;;;;;;;;;;;;;;;;;;5071040;28;2000;-41
2023/03/03 17:26:06;;;;;;;;;;;;;;;;;;5071187;28;2255;-41
2023/03/03 17:28:54;;;;;;;;;;;;;;;;;;5070364;28;1932;-40
2023/03/03 17:31:56;;;;;;;;;;;;;;;;;;5055760;28;2088;-41
2023/03/03 17:34:26;;;;;;;;;;;;;;;;;;5058071;28;1488;-42
2023/03/03 17:37:10;;;;;;;;;;;;;;;;;;5068915;28;1910;-40
2023/03/03 17:39:49;;;;;;;;;;;;;;;;;;5070847;28;1776;-42
2023/03/03 17:42:33;;;;;;;;;;;;;;;;;;5070565;28;1959;-40